martes, 12 de junio de 2012

Accidente en Uruguay, video de la búsqueda lunes 11 de Junio

Sigue la búsqueda del avión de AirClass accidentado en Uruguay, ningún rastro se ha encontrado.

Montecarlo TV






Monte Carlo TV busqueda avión AirClass por flap152



Metars al  momento del accidente:


  • SUMU 070100Z 24015G25KT 9999 SCT030 BKN060 07/03 Q1025 NOSIG 
  • SUMU 070000Z 26015G25KT 8000 -RA SCT030 BKN060 07/03 Q1023 NOSIG 
  • SUMU 062300Z 25015G25KT 9999 BKN030 BKN060 06/01 Q1023 NOSIG 
  • SUMU 062200Z 26015G25KT 9999 BKN030 BKN060 06/01 Q1022 NOSIG 
  • SUMU 062100Z 27018G28KT 9999 BKN030 BKN060 06/01 Q1022 NOSIG 
  • SUMU 062000Z 26018G28KT 9999 BKN026 BKN060 06/01 Q1021 NOSIG

No hay comentarios.:

Publicar un comentario